Overview Statistics Trail Chart Weather Telemetry Raw packets
 

This is the latest recevied weather packets stored in our database for station/object WA6OOO. If no packets are shown the sender has not sent any weather packets the latest 10 day(s).

<< 101 102 103 104 105 106 107 >>
Time Temp. Humidity Pressure Rain* Wind** Luminosity Snow
1787912808 23.33° C 80% 1013.9 hPa 0 mm - 0 W/m² -
1787912504 23.89° C 80% 1013.6 hPa 0 mm - 0 W/m² -
1787912202 23.89° C 80% 1013.4 hPa 0 mm - 0 W/m² -
1787911898 23.89° C 79% 1013.4 hPa 0 mm - 0 W/m² -
1787911593 24.44° C 76% 1013.5 hPa 0 mm - 0 W/m² -
1787911292 24.44° C 72% 1013.5 hPa 0 mm - 0 W/m² -
1787910988 24.44° C 72% 1013.4 hPa 0 mm - 0 W/m² -
1787910685 25° C 66% 1013.5 hPa 0 mm - 0 W/m² -
1787910384 24.44° C 58% 1013.4 hPa 0 mm - 0 W/m² -
1787910080 24.44° C 59% 1013.5 hPa 0 mm - 0 W/m² -
1787909778 23.89° C 61% 1013.4 hPa 0 mm - 0 W/m² -
1787909477 23.89° C 63% 1013.6 hPa 0 mm - 0 W/m² -
1787909172 23.89° C 69% 1013.5 hPa 0 mm - 0 W/m² -
1787908868 23.89° C 70% 1013.7 hPa 0 mm - 0 W/m² -
1787908567 23.89° C 70% 1013.9 hPa 0 mm - 0 W/m² -
1787908262 25° C 65% 1013.9 hPa 0 mm - 0 W/m² -
1787907961 25.56° C 62% 1013.8 hPa 0 mm - 0 W/m² -
1787907658 26.11° C 61% 1013.8 hPa 0 mm - 0 W/m² -
1787907356 27.22° C 48% 1013.6 hPa 0 mm - 0 W/m² -
1787907052 27.22° C 49% 1013.5 hPa 0 mm - 0 W/m² -
1787906748 26.67° C 49% 1013.6 hPa 0 mm - 0 W/m² -
1787906444 26.11° C 52% 1013.8 hPa 0 mm - 0 W/m² -
1787906138 25° C 62% 1013.5 hPa 0 mm - 0 W/m² -
1787905833 25° C 60% 1013.8 hPa 0 mm - 0 W/m² -
1787905528 23.89° C 58% 1014.1 hPa 0 mm - 0 W/m² -

* Rain latest hour (hover to see other rain measurements)
** Current wind speed in m/s (hover to see current wind gust speed)